createdAt,value
2023-04-26T00:00:06.457Z,5.04
2023-04-26T00:02:36.048Z,5.06
2023-04-26T00:05:05.248Z,5.04
2023-04-26T00:07:35.484Z,5.02
2023-04-26T00:10:03.552Z,5.01
2023-04-26T00:12:31.649Z,4.98
2023-04-26T00:14:59.734Z,4.95
2023-04-26T00:17:27.780Z,4.94
2023-04-26T00:19:57.627Z,4.94
2023-04-26T00:22:26.119Z,4.89
2023-04-26T00:24:55.571Z,4.85
2023-04-26T00:27:23.630Z,4.83
2023-04-26T00:29:51.696Z,4.80
2023-04-26T00:32:19.770Z,4.79
2023-04-26T00:34:47.852Z,4.75
2023-04-26T00:37:16.638Z,4.73
2023-04-26T00:39:44.733Z,4.71
2023-04-26T00:42:14.175Z,4.69
2023-04-26T00:44:42.230Z,4.67
2023-04-26T00:47:10.446Z,4.65
2023-04-26T00:49:38.561Z,4.64
2023-04-26T00:52:07.029Z,4.65
2023-04-26T00:54:35.143Z,4.65
2023-04-26T00:57:03.595Z,4.65
2023-04-26T00:59:34.641Z,4.66
2023-04-26T01:02:03.873Z,4.64
2023-04-26T01:04:32.160Z,4.62
2023-04-26T01:07:01.501Z,4.62
2023-04-26T01:09:29.653Z,4.57
2023-04-26T01:11:58.575Z,4.52
2023-04-26T01:14:27.045Z,4.49
2023-04-26T01:16:57.780Z,4.48
2023-04-26T01:19:25.886Z,4.49
2023-04-26T01:21:53.982Z,4.50
2023-04-26T01:24:23.413Z,4.50
2023-04-26T01:26:51.611Z,4.51
2023-04-26T01:29:21.197Z,4.54
2023-04-26T01:31:49.926Z,4.54
2023-04-26T01:34:18.280Z,4.53
2023-04-26T01:36:46.347Z,4.54
2023-04-26T01:39:14.415Z,4.55
2023-04-26T01:41:43.881Z,4.55
2023-04-26T01:44:11.951Z,4.54
2023-04-26T01:46:40.160Z,4.55
2023-04-26T01:49:08.344Z,4.55
2023-04-26T01:51:36.451Z,4.54
2023-04-26T01:54:04.633Z,4.51
2023-04-26T01:56:32.683Z,4.50
2023-04-26T01:59:02.097Z,4.49
2023-04-26T02:01:30.212Z,4.46
2023-04-26T02:03:58.276Z,4.48
2023-04-26T02:06:26.477Z,4.44
2023-04-26T02:08:55.179Z,4.41
2023-04-26T02:11:23.482Z,4.37
2023-04-26T02:13:51.636Z,4.33
2023-04-26T02:16:21.390Z,4.27
2023-04-26T02:18:50.795Z,4.25
2023-04-26T02:21:19.308Z,4.21
2023-04-26T02:23:47.355Z,4.19
2023-04-26T02:26:15.700Z,4.21
2023-04-26T02:28:43.756Z,4.21
2023-04-26T02:31:12.253Z,4.24
2023-04-26T02:33:41.761Z,4.27
2023-04-26T02:36:10.121Z,4.28
2023-04-26T02:38:38.263Z,4.31
2023-04-26T02:41:06.592Z,4.33
2023-04-26T02:43:34.768Z,4.34
2023-04-26T02:46:02.954Z,4.33
2023-04-26T02:48:31.023Z,4.33
2023-04-26T02:51:00.493Z,4.32
2023-04-26T02:53:28.566Z,4.32
2023-04-26T02:55:56.807Z,4.32
2023-04-26T02:58:24.889Z,4.30
2023-04-26T03:00:54.716Z,4.31
2023-04-26T03:03:23.219Z,4.31
2023-04-26T03:05:51.634Z,4.31
2023-04-26T03:08:21.142Z,4.30
2023-04-26T03:10:49.237Z,4.28
2023-04-26T03:13:17.361Z,4.27
2023-04-26T03:15:47.050Z,4.26
2023-04-26T03:18:15.123Z,4.24
2023-04-26T03:20:43.584Z,4.24
2023-04-26T03:23:11.611Z,4.24
2023-04-26T03:25:41.018Z,4.23
2023-04-26T03:28:09.108Z,4.21
2023-04-26T03:30:37.262Z,4.18
2023-04-26T03:33:05.369Z,4.14
2023-04-26T03:35:33.483Z,4.10
2023-04-26T03:38:01.542Z,4.05
2023-04-26T03:40:29.752Z,4.01
2023-04-26T03:42:59.196Z,3.95
2023-04-26T03:45:27.797Z,3.92
2023-04-26T03:47:59.040Z,3.91
2023-04-26T03:50:27.280Z,3.89
2023-04-26T03:52:55.343Z,3.88
2023-04-26T03:55:23.431Z,3.90
2023-04-26T03:57:51.454Z,3.91
2023-04-26T04:00:21.400Z,3.91
2023-04-26T04:02:49.652Z,3.98
2023-04-26T04:05:18.033Z,4.05
2023-04-26T04:07:46.318Z,4.13
2023-04-26T04:10:14.388Z,4.21
2023-04-26T04:12:42.438Z,4.27
2023-04-26T04:15:11.563Z,4.33
2023-04-26T04:17:41.057Z,4.39
2023-04-26T04:20:10.301Z,4.48
2023-04-26T04:22:39.651Z,4.54
2023-04-26T04:25:09.344Z,4.58
2023-04-26T04:27:38.194Z,4.62
2023-04-26T04:30:08.972Z,4.66
2023-04-26T04:32:38.100Z,4.68
2023-04-26T04:35:08.557Z,4.69
2023-04-26T04:37:36.633Z,4.67
2023-04-26T04:40:05.527Z,4.65
2023-04-26T04:42:34.986Z,4.62
2023-04-26T04:45:03.372Z,4.61
2023-04-26T04:47:31.501Z,4.62
2023-04-26T04:50:00.270Z,4.61
2023-04-26T04:52:29.728Z,4.63
2023-04-26T04:54:57.819Z,4.66
2023-04-26T04:57:25.920Z,4.70
2023-04-26T04:59:54.209Z,4.76
2023-04-26T05:02:22.445Z,4.84
2023-04-26T05:04:50.879Z,4.89
2023-04-26T05:07:19.106Z,4.96
2023-04-26T05:09:48.517Z,5.04
2023-04-26T05:12:16.620Z,5.13
2023-04-26T05:14:44.693Z,5.24
2023-04-26T05:17:13.372Z,5.35
2023-04-26T05:19:41.478Z,5.48
2023-04-26T05:22:09.537Z,5.59
2023-04-26T05:24:37.592Z,5.68
2023-04-26T05:27:07.021Z,5.78
2023-04-26T05:29:35.145Z,5.88
2023-04-26T05:32:03.932Z,5.98
2023-04-26T05:34:32.096Z,6.05
2023-04-26T05:37:00.161Z,6.09
2023-04-26T05:39:28.263Z,6.25
2023-04-26T05:41:56.385Z,6.46
2023-04-26T05:44:25.795Z,6.70
2023-04-26T05:46:54.001Z,6.92
2023-04-26T05:49:22.190Z,7.13
2023-04-26T05:51:50.344Z,7.36
2023-04-26T05:54:18.392Z,7.58
2023-04-26T05:56:46.758Z,7.81
2023-04-26T05:59:14.803Z,8.02
2023-04-26T06:01:44.219Z,8.22
2023-04-26T06:04:12.591Z,8.44
2023-04-26T06:06:40.914Z,8.63
2023-04-26T06:09:09.839Z,8.77
2023-04-26T06:11:37.938Z,8.95
2023-04-26T06:14:06.764Z,9.07
2023-04-26T06:16:34.927Z,9.19
2023-04-26T06:19:04.413Z,9.34
2023-04-26T06:21:32.968Z,9.44
2023-04-26T06:24:00.983Z,9.46
2023-04-26T06:26:29.054Z,9.56
2023-04-26T06:28:57.084Z,9.69
2023-04-26T06:31:25.190Z,9.79
2023-04-26T06:33:53.552Z,9.90
2023-04-26T06:36:23.356Z,10.01
2023-04-26T06:38:51.835Z,10.10
2023-04-26T06:41:19.899Z,10.19
2023-04-26T06:43:47.963Z,10.25
2023-04-26T06:46:16.081Z,10.32
2023-04-26T06:48:44.174Z,10.29
2023-04-26T06:51:12.460Z,10.38
2023-04-26T06:53:42.336Z,10.42
2023-04-26T06:56:10.399Z,10.53
2023-04-26T06:58:38.469Z,10.53
2023-04-26T07:01:08.624Z,10.53
2023-04-26T07:03:36.855Z,10.66
2023-04-26T07:06:06.266Z,10.66
2023-04-26T07:08:34.525Z,10.71
2023-04-26T07:11:10.343Z,10.79
2023-04-26T07:13:41.131Z,10.86
2023-04-26T07:16:09.200Z,10.97
2023-04-26T07:18:37.284Z,10.98
2023-04-26T07:21:05.336Z,11.04
2023-04-26T07:23:33.503Z,11.07
2023-04-26T07:26:04.395Z,11.03
2023-04-26T07:28:32.592Z,11.05
2023-04-26T07:31:02.358Z,11.09
2023-04-26T07:33:30.676Z,11.23
2023-04-26T07:36:01.433Z,11.38
2023-04-26T07:38:29.651Z,11.44
2023-04-26T07:40:58.286Z,11.62
2023-04-26T07:43:27.924Z,11.68
2023-04-26T07:45:56.035Z,11.58
2023-04-26T07:48:24.196Z,11.22
2023-04-26T07:50:52.259Z,10.78
2023-04-26T07:53:20.731Z,10.54
2023-04-26T07:55:48.910Z,10.30
2023-04-26T07:58:17.044Z,10.19
2023-04-26T08:00:46.545Z,10.18
2023-04-26T08:03:16.638Z,10.34
2023-04-26T08:05:47.960Z,10.47
2023-04-26T08:08:18.842Z,10.49
2023-04-26T08:10:47.169Z,10.43
2023-04-26T08:13:15.895Z,10.23
2023-04-26T08:15:44.030Z,10.34
2023-04-26T08:18:13.492Z,10.63
2023-04-26T08:20:42.437Z,11.10
2023-04-26T08:23:10.581Z,11.41
2023-04-26T08:25:38.668Z,11.36
2023-04-26T08:28:08.081Z,11.13
2023-04-26T08:30:36.317Z,10.88
2023-04-26T08:33:04.631Z,10.70
2023-04-26T08:35:34.065Z,10.86
2023-04-26T08:38:02.148Z,11.07
2023-04-26T08:40:30.229Z,11.44
2023-04-26T08:42:58.332Z,11.72
2023-04-26T08:45:26.479Z,11.74
2023-04-26T08:47:56.876Z,11.73
2023-04-26T08:50:25.413Z,11.59
2023-04-26T08:52:54.902Z,11.33
2023-04-26T08:55:23.445Z,11.40
2023-04-26T08:57:51.989Z,11.43
2023-04-26T09:00:21.440Z,11.38
2023-04-26T09:02:52.573Z,11.24
2023-04-26T09:05:23.701Z,10.88
2023-04-26T09:07:54.445Z,10.42
2023-04-26T09:10:24.009Z,9.90
2023-04-26T09:12:53.357Z,9.60
2023-04-26T09:15:22.708Z,9.54
2023-04-26T09:17:51.798Z,9.85
2023-04-26T09:20:23.176Z,10.63
2023-04-26T09:22:52.337Z,11.42
2023-04-26T09:25:27.768Z,11.99
2023-04-26T09:27:57.296Z,12.38
2023-04-26T09:30:26.035Z,12.66
2023-04-26T09:32:56.568Z,13.09
2023-04-26T09:35:27.246Z,13.47
2023-04-26T09:38:00.456Z,13.77
2023-04-26T09:40:34.448Z,13.66
2023-04-26T09:43:05.228Z,13.70
2023-04-26T09:45:35.135Z,13.65
2023-04-26T09:48:22.286Z,13.60
2023-04-26T09:50:52.552Z,13.26
2023-04-26T09:53:28.768Z,12.57
2023-04-26T09:55:57.644Z,11.87
2023-04-26T09:58:27.140Z,11.19
2023-04-26T10:00:55.755Z,10.65
2023-04-26T10:03:24.162Z,10.34
2023-04-26T10:05:52.791Z,10.18
2023-04-26T10:08:20.878Z,10.25
2023-04-26T10:10:49.062Z,10.44
2023-04-26T10:13:17.599Z,10.61
2023-04-26T10:15:48.861Z,10.83
2023-04-26T10:18:17.265Z,11.08
2023-04-26T10:20:49.441Z,11.32
2023-04-26T10:23:21.240Z,11.62
2023-04-26T10:25:49.555Z,11.92
2023-04-26T10:28:18.789Z,12.12
2023-04-26T10:30:57.955Z,12.37
2023-04-26T10:33:27.237Z,12.87
2023-04-26T10:36:03.887Z,13.33
2023-04-26T10:38:32.005Z,13.66
2023-04-26T10:41:33.754Z,13.45
2023-04-26T10:44:39.971Z,12.81
2023-04-26T10:47:21.970Z,12.34
2023-04-26T10:49:50.053Z,12.34
2023-04-26T10:52:21.375Z,12.94
2023-04-26T10:54:51.590Z,13.74
2023-04-26T10:57:20.133Z,14.18
2023-04-26T11:00:21.127Z,13.81
2023-04-26T11:02:58.349Z,13.80
2023-04-26T11:05:56.580Z,14.20
2023-04-26T11:08:30.089Z,14.76
2023-04-26T11:11:11.097Z,14.70
2023-04-26T11:13:40.629Z,14.00
2023-04-26T11:16:09.580Z,13.04
2023-04-26T11:18:40.224Z,11.95
2023-04-26T11:21:08.475Z,11.18
2023-04-26T11:23:36.824Z,10.70
2023-04-26T11:26:05.699Z,10.25
2023-04-26T11:28:37.201Z,10.16
2023-04-26T11:31:06.404Z,10.34
2023-04-26T11:33:35.659Z,10.65
2023-04-26T11:36:05.556Z,10.96
2023-04-26T11:38:33.663Z,11.35
2023-04-26T11:41:03.071Z,11.59
2023-04-26T11:43:35.609Z,11.81
2023-04-26T11:46:04.604Z,12.13
2023-04-26T11:48:33.768Z,12.14
2023-04-26T11:51:03.804Z,12.29
2023-04-26T11:53:40.734Z,12.32
2023-04-26T11:56:16.871Z,12.62
2023-04-26T11:58:48.959Z,12.56
2023-04-26T12:01:22.198Z,12.23
2023-04-26T12:03:52.223Z,12.02
2023-04-26T12:06:21.150Z,11.89
2023-04-26T12:08:53.982Z,11.88
2023-04-26T12:11:22.188Z,12.04
2023-04-26T12:13:50.345Z,12.29
2023-04-26T12:16:26.445Z,12.58
2023-04-26T12:18:56.769Z,12.95
2023-04-26T12:21:27.532Z,13.12
2023-04-26T12:23:59.344Z,13.57
2023-04-26T12:26:43.595Z,14.16
2023-04-26T12:29:11.714Z,14.42
2023-04-26T12:31:39.999Z,14.69
2023-04-26T12:34:08.853Z,14.57
2023-04-26T12:36:36.908Z,13.82
2023-04-26T12:39:06.920Z,12.64
2023-04-26T12:41:35.047Z,11.64
2023-04-26T12:44:03.191Z,10.76
2023-04-26T12:46:31.388Z,10.18
2023-04-26T12:48:59.544Z,9.74
2023-04-26T12:51:27.706Z,9.46
2023-04-26T12:53:55.855Z,9.29
2023-04-26T12:56:25.712Z,9.29
2023-04-26T12:58:53.817Z,9.42
2023-04-26T13:01:21.956Z,9.61
2023-04-26T13:03:50.267Z,9.84
2023-04-26T13:06:18.588Z,10.36
2023-04-26T13:08:46.696Z,10.98
2023-04-26T13:11:14.772Z,11.40
2023-04-26T13:13:45.025Z,11.81
2023-04-26T13:16:13.575Z,12.00
2023-04-26T13:18:42.232Z,11.98
2023-04-26T13:21:10.282Z,12.07
2023-04-26T13:23:38.373Z,12.43
2023-04-26T13:26:06.648Z,12.87
2023-04-26T13:28:36.157Z,13.09
2023-04-26T13:31:06.483Z,13.39
2023-04-26T13:33:34.768Z,13.90
2023-04-26T13:36:02.893Z,14.15
2023-04-26T13:38:32.850Z,14.01
2023-04-26T13:41:01.334Z,13.68
2023-04-26T13:43:30.706Z,13.38
2023-04-26T13:45:58.816Z,12.92
2023-04-26T13:48:28.473Z,12.33
2023-04-26T13:50:56.740Z,12.04
2023-04-26T13:53:25.010Z,12.00
2023-04-26T13:55:53.371Z,12.16
2023-04-26T13:58:21.784Z,12.41
2023-04-26T14:00:49.868Z,12.57
2023-04-26T14:03:18.313Z,12.39
2023-04-26T14:05:47.821Z,12.24
2023-04-26T14:08:16.128Z,11.98
2023-04-26T14:10:44.396Z,11.65
2023-04-26T14:13:12.467Z,11.33
2023-04-26T14:15:40.523Z,11.20
2023-04-26T14:18:09.225Z,11.12
2023-04-26T14:20:37.316Z,11.08
2023-04-26T14:23:06.763Z,11.06
2023-04-26T14:25:35.329Z,11.24
2023-04-26T14:28:04.168Z,11.55
2023-04-26T14:30:32.649Z,11.88
2023-04-26T14:33:00.948Z,12.08
2023-04-26T14:35:29.058Z,12.25
2023-04-26T14:37:57.129Z,12.36
2023-04-26T14:40:26.543Z,12.46
2023-04-26T14:42:54.613Z,12.33
2023-04-26T14:45:30.405Z,12.38
2023-04-26T14:48:02.315Z,12.48
2023-04-26T14:50:30.464Z,12.46
2023-04-26T14:52:58.539Z,12.32
2023-04-26T14:55:28.315Z,12.01
2023-04-26T14:57:56.382Z,11.79
2023-04-26T15:00:25.532Z,11.52
2023-04-26T15:02:53.783Z,11.03
2023-04-26T15:05:24.144Z,10.69
2023-04-26T15:07:52.326Z,10.60
2023-04-26T15:10:20.736Z,10.45
2023-04-26T15:12:50.307Z,10.48
2023-04-26T15:15:18.610Z,10.54
2023-04-26T15:17:46.895Z,10.59
2023-04-26T15:20:15.943Z,10.60
2023-04-26T15:22:44.101Z,10.59
2023-04-26T15:25:12.743Z,10.69
2023-04-26T15:27:41.136Z,10.71
2023-04-26T15:30:11.473Z,10.59
2023-04-26T15:32:39.637Z,10.47
2023-04-26T15:35:08.467Z,10.40
2023-04-26T15:37:38.269Z,10.39
2023-04-26T15:40:10.389Z,10.28
2023-04-26T15:42:38.953Z,10.33
2023-04-26T15:45:08.227Z,10.50
2023-04-26T15:47:38.135Z,10.63
2023-04-26T15:50:09.757Z,10.64
2023-04-26T15:52:40.325Z,10.68
2023-04-26T15:55:08.562Z,10.62
2023-04-26T15:57:37.557Z,10.51
2023-04-26T16:00:08.434Z,10.52
2023-04-26T16:02:38.104Z,10.53
2023-04-26T16:05:08.248Z,10.57
2023-04-26T16:07:38.696Z,10.55
2023-04-26T16:10:08.318Z,10.45
2023-04-26T16:12:39.332Z,10.52
2023-04-26T16:15:09.391Z,10.67
2023-04-26T16:17:39.243Z,10.72
2023-04-26T16:20:09.072Z,10.44
2023-04-26T16:22:37.619Z,10.13
2023-04-26T16:25:06.984Z,9.84
2023-04-26T16:27:35.360Z,9.65
2023-04-26T16:30:03.897Z,9.60
2023-04-26T16:32:32.308Z,9.53
2023-04-26T16:35:01.799Z,9.48
2023-04-26T16:37:29.852Z,9.38
2023-04-26T16:39:57.906Z,9.32
2023-04-26T16:42:26.365Z,9.44
2023-04-26T16:44:56.016Z,9.72
2023-04-26T16:47:24.169Z,9.87
2023-04-26T16:49:52.487Z,9.87
2023-04-26T16:52:21.987Z,9.86
2023-04-26T16:54:50.192Z,9.80
2023-04-26T16:57:18.904Z,9.71
2023-04-26T16:59:47.432Z,9.73
2023-04-26T17:02:15.750Z,9.67
2023-04-26T17:04:44.422Z,9.61
2023-04-26T17:07:12.924Z,9.61
2023-04-26T17:09:42.387Z,9.64
2023-04-26T17:12:10.458Z,9.62
2023-04-26T17:14:38.530Z,9.62
2023-04-26T17:17:06.674Z,9.59
2023-04-26T17:19:34.819Z,9.58
2023-04-26T17:22:02.937Z,9.56
2023-04-26T17:24:31.196Z,9.42
2023-04-26T17:27:00.656Z,9.29
2023-04-26T17:29:28.729Z,9.13
2023-04-26T17:31:56.805Z,9.02
2023-04-26T17:34:25.022Z,8.90
2023-04-26T17:36:53.511Z,8.85
2023-04-26T17:39:21.588Z,8.86
2023-04-26T17:41:51.254Z,8.85
2023-04-26T17:44:20.722Z,8.80
2023-04-26T17:46:49.108Z,8.74
2023-04-26T17:49:17.273Z,8.70
2023-04-26T17:51:45.394Z,8.69
2023-04-26T17:54:14.099Z,8.68
2023-04-26T17:56:43.464Z,8.64
2023-04-26T17:59:11.797Z,8.52
2023-04-26T18:01:41.313Z,8.46
2023-04-26T18:04:09.559Z,8.42
2023-04-26T18:06:37.956Z,8.44
2023-04-26T18:09:06.134Z,8.45
2023-04-26T18:11:34.254Z,8.41
2023-04-26T18:14:02.340Z,8.34
2023-04-26T18:16:30.412Z,8.25
2023-04-26T18:18:59.881Z,8.18
2023-04-26T18:21:27.939Z,8.12
2023-04-26T18:23:56.277Z,8.08
2023-04-26T18:26:25.632Z,8.07
2023-04-26T18:28:54.902Z,8.01
2023-04-26T18:31:23.187Z,7.98
2023-04-26T18:33:51.367Z,7.89
2023-04-26T18:36:20.868Z,7.82
2023-04-26T18:38:48.937Z,7.76
2023-04-26T18:41:17.881Z,7.67
2023-04-26T18:43:45.962Z,7.57
2023-04-26T18:46:14.087Z,7.46
2023-04-26T18:48:42.218Z,7.36
2023-04-26T18:51:10.312Z,7.28
2023-04-26T18:53:39.778Z,7.20
2023-04-26T18:56:07.945Z,7.15
2023-04-26T18:58:36.742Z,7.12
2023-04-26T19:01:04.938Z,7.09
2023-04-26T19:03:33.237Z,7.10
2023-04-26T19:06:01.423Z,7.08
2023-04-26T19:08:29.490Z,7.06
2023-04-26T19:10:59.212Z,7.07
2023-04-26T19:13:27.378Z,7.08
2023-04-26T19:15:55.473Z,7.07
2023-04-26T19:18:23.613Z,7.06
2023-04-26T19:20:51.681Z,7.05
2023-04-26T19:23:20.062Z,7.05
2023-04-26T19:25:48.511Z,7.06
2023-04-26T19:28:17.965Z,7.09
2023-04-26T19:30:46.024Z,7.08
2023-04-26T19:33:14.116Z,6.99
2023-04-26T19:35:42.184Z,6.80
2023-04-26T19:38:10.455Z,6.73
2023-04-26T19:40:38.940Z,6.62
2023-04-26T19:43:07.153Z,6.59
2023-04-26T19:45:37.902Z,6.54
2023-04-26T19:48:06.195Z,6.50
2023-04-26T19:50:34.318Z,6.47
2023-04-26T19:53:02.431Z,6.42
2023-04-26T19:55:30.722Z,6.41
2023-04-26T19:57:59.410Z,6.40
2023-04-26T20:00:30.181Z,6.40
2023-04-26T20:03:00.032Z,6.38
2023-04-26T20:05:28.152Z,6.37
2023-04-26T20:07:56.642Z,6.36
2023-04-26T20:10:24.884Z,6.34
2023-04-26T20:12:53.175Z,6.32
2023-04-26T20:15:21.318Z,6.29
2023-04-26T20:17:49.437Z,6.29
2023-04-26T20:20:19.127Z,6.31
2023-04-26T20:22:47.197Z,6.30
2023-04-26T20:25:15.504Z,6.28
2023-04-26T20:27:43.585Z,6.27
2023-04-26T20:30:12.519Z,6.24
2023-04-26T20:32:40.627Z,6.21
2023-04-26T20:35:09.427Z,6.19
2023-04-26T20:37:38.913Z,6.14
2023-04-26T20:40:08.393Z,6.10
2023-04-26T20:42:36.501Z,6.08
2023-04-26T20:45:05.121Z,6.08
2023-04-26T20:47:33.220Z,6.08
2023-04-26T20:50:01.287Z,6.09
2023-04-26T20:52:29.359Z,6.09
2023-04-26T20:54:58.789Z,6.14
2023-04-26T20:57:26.967Z,6.18
2023-04-26T20:59:55.034Z,6.22
2023-04-26T21:02:23.240Z,6.24
2023-04-26T21:04:51.522Z,6.24
2023-04-26T21:07:19.595Z,6.22
2023-04-26T21:09:47.948Z,6.19
2023-04-26T21:12:17.412Z,6.18
2023-04-26T21:14:47.831Z,6.14
2023-04-26T21:17:16.031Z,6.09
2023-04-26T21:19:44.562Z,6.04
2023-04-26T21:22:12.693Z,5.98
2023-04-26T21:24:40.764Z,5.93
2023-04-26T21:27:09.447Z,5.86
2023-04-26T21:29:39.097Z,5.82
2023-04-26T21:32:07.176Z,5.79
2023-04-26T21:34:36.513Z,5.73
2023-04-26T21:37:04.747Z,5.68
2023-04-26T21:39:32.829Z,5.63
2023-04-26T21:42:03.386Z,5.58
2023-04-26T21:44:31.497Z,5.54
2023-04-26T21:47:01.080Z,5.49
2023-04-26T21:49:29.276Z,5.42
2023-04-26T21:51:57.370Z,5.33
2023-04-26T21:54:25.581Z,5.26
2023-04-26T21:56:53.638Z,5.20
2023-04-26T21:59:21.718Z,5.16
2023-04-26T22:01:49.791Z,5.12
2023-04-26T22:04:19.452Z,5.09
2023-04-26T22:06:47.655Z,5.06
2023-04-26T22:09:15.858Z,5.01
2023-04-26T22:11:44.245Z,4.98
2023-04-26T22:14:12.324Z,4.97
2023-04-26T22:16:40.430Z,4.96
2023-04-26T22:19:08.885Z,4.93
2023-04-26T22:21:38.659Z,4.91
2023-04-26T22:24:07.426Z,4.87
2023-04-26T22:26:36.084Z,4.81
2023-04-26T22:29:04.173Z,4.78
2023-04-26T22:31:32.244Z,4.76
2023-04-26T22:34:00.316Z,4.76
2023-04-26T22:36:28.387Z,4.75
2023-04-26T22:38:59.005Z,4.75
2023-04-26T22:41:27.066Z,4.78
2023-04-26T22:43:55.185Z,4.81
2023-04-26T22:46:23.406Z,4.83
2023-04-26T22:48:51.636Z,4.86
2023-04-26T22:51:19.749Z,4.85
2023-04-26T22:53:47.799Z,4.83
2023-04-26T22:56:17.606Z,4.80
2023-04-26T22:58:45.914Z,4.76
2023-04-26T23:01:14.019Z,4.73
2023-04-26T23:03:42.261Z,4.73
2023-04-26T23:06:10.380Z,4.70
2023-04-26T23:08:38.442Z,4.68
2023-04-26T23:11:08.672Z,4.64
2023-04-26T23:13:38.228Z,4.61
2023-04-26T23:16:07.066Z,4.58
2023-04-26T23:18:35.274Z,4.55
2023-04-26T23:21:03.396Z,4.51
2023-04-26T23:23:31.616Z,4.49
2023-04-26T23:25:59.662Z,4.45
2023-04-26T23:28:27.717Z,4.41
2023-04-26T23:30:57.207Z,4.37
2023-04-26T23:33:25.553Z,4.34
2023-04-26T23:35:55.952Z,4.30
2023-04-26T23:38:24.076Z,4.25
2023-04-26T23:40:52.152Z,4.21
2023-04-26T23:43:20.223Z,4.18
2023-04-26T23:45:48.297Z,4.15
2023-04-26T23:48:19.723Z,4.13
2023-04-26T23:50:47.790Z,4.12
2023-04-26T23:53:16.158Z,4.11
2023-04-26T23:55:44.245Z,4.09
2023-04-26T23:58:12.299Z,4.07
